createdAt,value
2022-10-16T00:01:30.508Z,16.60
2022-10-16T00:03:59.200Z,16.60
2022-10-16T00:06:27.697Z,16.80
2022-10-16T00:08:55.793Z,16.90
2022-10-16T00:11:25.036Z,16.70
2022-10-16T00:13:53.907Z,16.60
2022-10-16T00:16:23.342Z,16.70
2022-10-16T00:18:51.579Z,16.50
2022-10-16T00:21:20.974Z,16.70
2022-10-16T00:23:51.781Z,16.60
2022-10-16T00:26:20.457Z,16.60
2022-10-16T00:28:48.927Z,16.40
2022-10-16T00:31:18.398Z,16.60
2022-10-16T00:33:48.196Z,16.70
2022-10-16T00:36:17.085Z,16.70
2022-10-16T00:38:45.400Z,16.30
2022-10-16T00:41:14.877Z,16.30
2022-10-16T00:43:43.862Z,16.50
2022-10-16T00:46:15.294Z,16.50
2022-10-16T00:48:45.044Z,16.50
2022-10-16T00:51:14.523Z,16.40
2022-10-16T00:53:42.747Z,16.50
2022-10-16T00:56:11.031Z,16.60
2022-10-16T00:58:39.125Z,16.40
2022-10-16T01:01:07.272Z,16.40
2022-10-16T01:03:36.864Z,16.50
2022-10-16T01:06:15.620Z,16.30
2022-10-16T01:08:53.270Z,16.40
2022-10-16T01:11:24.499Z,16.10
2022-10-16T01:13:55.308Z,16.10
2022-10-16T01:16:28.689Z,16.30
2022-10-16T01:18:59.387Z,16.40
2022-10-16T01:21:29.793Z,16.30
2022-10-16T01:24:03.786Z,16.30
2022-10-16T01:26:44.315Z,16.20
2022-10-16T01:29:17.182Z,16.30
2022-10-16T01:31:47.839Z,16.30
2022-10-16T01:34:18.104Z,16.40
2022-10-16T01:36:49.439Z,16.40
2022-10-16T01:39:21.050Z,16.30
2022-10-16T01:41:50.819Z,16.20
2022-10-16T01:44:22.119Z,16.30
2022-10-16T01:46:52.104Z,16.40
2022-10-16T01:49:20.905Z,16.30
2022-10-16T01:51:51.387Z,16.40
2022-10-16T01:54:19.959Z,16.30
2022-10-16T01:56:49.507Z,16.10
2022-10-16T01:59:19.221Z,16.10
2022-10-16T02:01:51.189Z,16.10
2022-10-16T02:04:21.102Z,16.10
2022-10-16T02:06:49.127Z,16.10
2022-10-16T02:09:17.866Z,16.10
2022-10-16T02:11:46.427Z,16.20
2022-10-16T02:14:14.470Z,16.30
2022-10-16T02:16:43.487Z,16.30
2022-10-16T02:19:16.006Z,16.10
2022-10-16T02:21:46.553Z,16.20
2022-10-16T02:24:17.680Z,16.30
2022-10-16T02:26:47.971Z,16.30
2022-10-16T02:29:18.816Z,16.40
2022-10-16T02:31:48.888Z,16.30
2022-10-16T02:34:19.832Z,16.20
2022-10-16T02:36:48.873Z,16.10
2022-10-16T02:39:17.657Z,16.10
2022-10-16T02:41:46.021Z,16.20
2022-10-16T02:44:14.117Z,16.10
2022-10-16T02:46:42.190Z,16.20
2022-10-16T02:49:10.374Z,16.20
2022-10-16T02:51:39.832Z,16.20
2022-10-16T02:54:07.845Z,16.20
2022-10-16T02:56:36.032Z,16.20
2022-10-16T02:59:04.044Z,16.30
2022-10-16T03:01:32.200Z,16.20
2022-10-16T03:04:00.558Z,16.20
2022-10-16T03:06:28.504Z,15.90
2022-10-16T03:08:57.948Z,15.90
2022-10-16T03:11:26.156Z,16.00
2022-10-16T03:13:54.129Z,16.10
2022-10-16T03:16:22.230Z,16.10
2022-10-16T03:18:50.588Z,16.00
2022-10-16T03:21:18.716Z,16.10
2022-10-16T03:23:47.711Z,16.00
2022-10-16T03:26:17.378Z,16.00
2022-10-16T03:28:45.509Z,16.10
2022-10-16T03:31:13.642Z,15.90
2022-10-16T03:33:41.982Z,15.80
2022-10-16T03:36:09.926Z,15.90
2022-10-16T03:38:37.978Z,15.90
2022-10-16T03:41:06.324Z,15.80
2022-10-16T03:43:35.783Z,15.80
2022-10-16T03:46:03.842Z,15.90
2022-10-16T03:48:33.075Z,16.10
2022-10-16T03:51:01.208Z,16.20
2022-10-16T03:53:29.173Z,16.30
2022-10-16T03:55:57.442Z,16.20
2022-10-16T03:58:25.437Z,16.10
2022-10-16T04:00:54.797Z,16.10
2022-10-16T04:03:24.039Z,16.10
2022-10-16T04:05:52.189Z,16.10
2022-10-16T04:08:20.362Z,16.20
2022-10-16T04:10:48.643Z,16.10
2022-10-16T04:13:16.745Z,16.20
2022-10-16T04:15:44.722Z,16.10
2022-10-16T04:18:14.377Z,16.00
2022-10-16T04:20:42.714Z,16.00
2022-10-16T04:23:10.710Z,15.90
2022-10-16T04:25:38.975Z,16.00
2022-10-16T04:28:06.890Z,16.10
2022-10-16T04:30:35.647Z,15.90
2022-10-16T04:33:03.835Z,15.90
2022-10-16T04:35:33.226Z,16.00
2022-10-16T04:38:01.169Z,15.90
2022-10-16T04:40:29.466Z,16.00
2022-10-16T04:42:57.409Z,15.90
2022-10-16T04:45:25.474Z,16.00
2022-10-16T04:47:53.753Z,15.90
2022-10-16T04:50:21.834Z,15.90
2022-10-16T04:53:08.174Z,16.00
2022-10-16T04:55:36.306Z,15.90
2022-10-16T04:58:04.302Z,16.10
2022-10-16T05:00:32.566Z,16.10
2022-10-16T05:03:01.781Z,15.80
2022-10-16T05:05:29.819Z,15.90
2022-10-16T05:07:58.092Z,16.00
2022-10-16T05:10:27.470Z,15.90
2022-10-16T05:12:55.480Z,16.00
2022-10-16T05:15:25.855Z,15.90
2022-10-16T05:17:57.842Z,16.00
2022-10-16T05:20:25.961Z,15.90
2022-10-16T05:22:53.990Z,15.80
2022-10-16T05:25:21.988Z,15.70
2022-10-16T05:27:51.530Z,15.90
2022-10-16T05:30:19.791Z,15.90
2022-10-16T05:32:50.932Z,16.00
2022-10-16T05:35:20.425Z,15.90
2022-10-16T05:37:48.870Z,15.90
2022-10-16T05:40:17.832Z,15.70
2022-10-16T05:42:46.612Z,15.70
2022-10-16T05:45:16.050Z,15.60
2022-10-16T05:47:44.148Z,15.70
2022-10-16T05:50:12.343Z,15.80
2022-10-16T05:52:40.442Z,15.80
2022-10-16T05:55:08.757Z,15.80
2022-10-16T05:57:37.161Z,15.70
2022-10-16T06:00:05.772Z,15.60
2022-10-16T06:02:42.201Z,15.70
2022-10-16T06:05:10.493Z,15.70
2022-10-16T06:07:38.444Z,15.60
2022-10-16T06:10:07.320Z,15.70
2022-10-16T06:12:35.362Z,15.60
2022-10-16T06:15:03.327Z,15.60
2022-10-16T06:17:31.578Z,15.70
2022-10-16T06:20:01.783Z,15.70
2022-10-16T06:22:29.886Z,15.80
2022-10-16T06:24:58.125Z,15.70
2022-10-16T06:27:26.336Z,15.80
2022-10-16T06:29:54.740Z,15.70
2022-10-16T06:32:23.152Z,15.70
2022-10-16T06:34:51.170Z,15.80
2022-10-16T06:37:20.621Z,15.80
2022-10-16T06:39:48.865Z,15.80
2022-10-16T06:42:16.978Z,15.90
2022-10-16T06:44:44.985Z,15.70
2022-10-16T06:47:13.222Z,15.60
2022-10-16T06:49:42.292Z,15.90
2022-10-16T06:52:10.234Z,16.10
2022-10-16T06:54:42.537Z,16.00
2022-10-16T06:57:10.791Z,16.10
2022-10-16T06:59:38.828Z,16.00
2022-10-16T07:02:08.014Z,16.10
2022-10-16T07:04:37.533Z,16.00
2022-10-16T07:07:08.561Z,16.10
2022-10-16T07:09:37.826Z,16.10
2022-10-16T07:12:07.329Z,16.10
2022-10-16T07:14:35.378Z,16.20
2022-10-16T07:17:04.199Z,16.30
2022-10-16T07:19:34.415Z,16.30
2022-10-16T07:22:02.825Z,16.10
2022-10-16T07:24:31.237Z,16.10
2022-10-16T07:26:59.187Z,16.20
2022-10-16T07:29:28.706Z,16.20
2022-10-16T07:31:57.055Z,16.30
2022-10-16T07:34:25.521Z,16.30
2022-10-16T07:36:53.677Z,16.40
2022-10-16T07:39:21.918Z,16.30
2022-10-16T07:41:49.906Z,16.30
2022-10-16T07:44:18.414Z,16.40
2022-10-16T07:46:48.134Z,16.40
2022-10-16T07:49:16.116Z,16.50
2022-10-16T07:51:44.208Z,16.50
2022-10-16T07:54:12.656Z,16.50
2022-10-16T07:56:43.727Z,16.50
2022-10-16T07:59:12.634Z,16.50
2022-10-16T08:01:40.872Z,16.30
2022-10-16T08:04:10.599Z,16.40
2022-10-16T08:06:39.468Z,16.40
2022-10-16T08:09:08.075Z,16.40
2022-10-16T08:11:36.182Z,16.60
2022-10-16T08:14:04.232Z,16.60
2022-10-16T08:16:32.395Z,16.60
2022-10-16T08:19:00.523Z,16.70
2022-10-16T08:21:30.083Z,16.70
2022-10-16T08:23:58.795Z,16.70
2022-10-16T08:26:27.996Z,16.80
2022-10-16T08:28:56.483Z,16.90
2022-10-16T08:31:25.137Z,16.80
2022-10-16T08:33:53.683Z,16.90
2022-10-16T08:36:21.944Z,16.90
2022-10-16T08:38:54.435Z,16.80
2022-10-16T08:41:31.970Z,16.80
2022-10-16T08:44:10.051Z,16.90
2022-10-16T08:46:49.615Z,17.00
2022-10-16T08:49:19.129Z,16.90
2022-10-16T08:51:50.450Z,17.10
2022-10-16T08:54:28.997Z,17.20
2022-10-16T08:56:57.670Z,17.30
2022-10-16T08:59:25.815Z,17.30
2022-10-16T09:01:54.163Z,17.20
2022-10-16T09:04:35.651Z,17.30
2022-10-16T09:07:07.031Z,17.30
2022-10-16T09:09:42.525Z,17.30
2022-10-16T09:12:13.749Z,17.30
2022-10-16T09:14:49.395Z,17.30
2022-10-16T09:17:22.554Z,17.20
2022-10-16T09:19:53.867Z,17.40
2022-10-16T09:22:24.052Z,17.30
2022-10-16T09:24:53.730Z,17.60
2022-10-16T09:27:22.582Z,17.70
2022-10-16T09:29:50.707Z,17.80
2022-10-16T09:32:20.775Z,17.80
2022-10-16T09:34:50.481Z,17.80
2022-10-16T09:37:20.260Z,17.80
2022-10-16T09:39:49.258Z,17.70
2022-10-16T09:42:19.841Z,17.90
2022-10-16T09:44:49.965Z,17.90
2022-10-16T09:47:19.346Z,18.10
2022-10-16T09:49:52.904Z,18.00
2022-10-16T09:52:21.625Z,18.00
2022-10-16T09:54:53.541Z,18.10
2022-10-16T09:57:23.863Z,18.30
2022-10-16T09:59:53.250Z,18.40
2022-10-16T10:02:22.326Z,18.20
2022-10-16T10:04:52.308Z,18.40
2022-10-16T10:07:23.310Z,18.50
2022-10-16T10:09:51.598Z,18.60
2022-10-16T10:12:24.233Z,18.60
2022-10-16T10:14:56.912Z,18.70
2022-10-16T10:17:25.656Z,18.70
2022-10-16T10:19:55.283Z,18.80
2022-10-16T10:22:28.418Z,18.70
2022-10-16T10:24:57.737Z,18.90
2022-10-16T10:27:30.038Z,18.90
2022-10-16T10:30:03.395Z,18.80
2022-10-16T10:32:35.683Z,18.60
2022-10-16T10:35:09.454Z,18.80
2022-10-16T10:37:43.030Z,19.00
2022-10-16T10:40:17.170Z,19.00
2022-10-16T10:42:50.254Z,19.20
2022-10-16T10:45:28.026Z,19.30
2022-10-16T10:48:08.404Z,19.20
2022-10-16T10:50:41.828Z,19.30
2022-10-16T10:53:13.989Z,19.40
2022-10-16T10:55:45.178Z,19.30
2022-10-16T10:58:22.305Z,19.40
2022-10-16T11:00:56.628Z,19.40
2022-10-16T11:03:33.867Z,19.40
2022-10-16T11:06:05.130Z,19.40
2022-10-16T11:08:36.267Z,19.50
2022-10-16T11:11:05.591Z,19.30
2022-10-16T11:13:36.490Z,19.20
2022-10-16T11:16:14.303Z,19.00
2022-10-16T11:18:51.082Z,19.00
2022-10-16T11:21:20.270Z,19.30
2022-10-16T11:23:51.257Z,19.30
2022-10-16T11:26:21.550Z,19.50
2022-10-16T11:28:51.202Z,19.40
2022-10-16T11:31:24.136Z,19.50
2022-10-16T11:33:56.133Z,19.70
2022-10-16T11:36:25.996Z,19.70
2022-10-16T11:38:56.671Z,19.70
2022-10-16T11:41:29.946Z,19.80
2022-10-16T11:44:11.041Z,20.00
2022-10-16T11:46:58.908Z,19.80
2022-10-16T11:49:30.261Z,20.00
2022-10-16T11:52:01.600Z,20.20
2022-10-16T11:54:34.454Z,20.20
2022-10-16T11:57:05.154Z,19.90
2022-10-16T11:59:36.810Z,19.80
2022-10-16T12:02:17.859Z,19.90
2022-10-16T12:04:48.446Z,20.00
2022-10-16T12:07:19.493Z,20.00
2022-10-16T12:09:47.593Z,20.30
2022-10-16T12:12:28.096Z,20.40
2022-10-16T12:15:25.769Z,20.20
2022-10-16T12:17:52.280Z,20.40
2022-10-16T12:20:23.165Z,20.40
2022-10-16T12:22:52.280Z,20.50
2022-10-16T12:25:22.827Z,20.60
2022-10-16T12:27:56.763Z,20.80
2022-10-16T12:30:26.029Z,20.30
2022-10-16T12:33:00.095Z,20.10
2022-10-16T12:35:29.374Z,20.20
2022-10-16T12:38:07.107Z,20.10
2022-10-16T12:40:36.300Z,20.20
2022-10-16T12:43:13.569Z,20.60
2022-10-16T12:45:41.534Z,20.80
2022-10-16T12:48:22.209Z,21.00
2022-10-16T12:50:50.418Z,21.10
2022-10-16T12:53:20.214Z,21.00
2022-10-16T12:55:54.058Z,21.00
2022-10-16T12:58:36.207Z,20.90
2022-10-16T13:01:09.466Z,20.90
2022-10-16T13:04:03.483Z,20.60
2022-10-16T13:06:35.379Z,20.50
2022-10-16T13:09:20.536Z,20.50
2022-10-16T13:11:57.773Z,20.50
2022-10-16T13:14:37.776Z,20.60
2022-10-16T13:17:09.966Z,20.50
2022-10-16T13:19:44.480Z,20.70
2022-10-16T13:22:15.910Z,21.00
2022-10-16T13:24:59.143Z,20.90
2022-10-16T13:27:32.509Z,21.20
2022-10-16T13:30:03.521Z,21.50
2022-10-16T13:32:32.860Z,21.30
2022-10-16T13:35:02.515Z,21.20
2022-10-16T13:37:30.633Z,21.30
2022-10-16T13:40:05.018Z,21.60
2022-10-16T13:42:34.483Z,21.60
2022-10-16T13:45:02.552Z,21.70
2022-10-16T13:47:31.585Z,21.70
2022-10-16T13:50:05.678Z,21.60
2022-10-16T13:52:34.161Z,21.40
2022-10-16T13:55:02.752Z,21.10
2022-10-16T13:57:30.895Z,20.70
2022-10-16T13:59:58.974Z,20.60
2022-10-16T14:02:29.513Z,20.70
2022-10-16T14:04:58.364Z,21.00
2022-10-16T14:07:29.442Z,21.20
2022-10-16T14:09:58.054Z,21.40
2022-10-16T14:12:28.177Z,21.40
2022-10-16T14:14:57.613Z,21.20
2022-10-16T14:17:27.708Z,20.90
2022-10-16T14:19:59.666Z,20.80
2022-10-16T14:22:34.924Z,20.70
2022-10-16T14:25:03.325Z,20.80
2022-10-16T14:27:33.262Z,20.70
2022-10-16T14:30:15.738Z,20.70
2022-10-16T14:32:54.377Z,20.90
2022-10-16T14:35:26.470Z,21.10
2022-10-16T14:37:56.964Z,21.40
2022-10-16T14:40:26.048Z,21.30
2022-10-16T14:42:54.658Z,21.30
2022-10-16T14:45:23.460Z,21.20
2022-10-16T14:47:52.608Z,21.20
2022-10-16T14:50:20.748Z,21.20
2022-10-16T14:52:48.899Z,21.20
2022-10-16T14:55:18.639Z,21.20
2022-10-16T14:57:47.512Z,21.10
2022-10-16T15:00:17.792Z,20.70
2022-10-16T15:02:46.207Z,20.70
2022-10-16T15:05:16.331Z,20.90
2022-10-16T15:07:44.615Z,20.70
2022-10-16T15:10:12.890Z,20.70
2022-10-16T15:12:42.350Z,20.80
2022-10-16T15:15:25.808Z,21.10
2022-10-16T15:17:56.514Z,21.20
2022-10-16T15:20:25.330Z,21.20
2022-10-16T15:22:53.407Z,21.20
2022-10-16T15:25:29.684Z,21.10
2022-10-16T15:27:59.268Z,20.90
2022-10-16T15:30:27.378Z,20.80
2022-10-16T15:32:55.492Z,20.70
2022-10-16T15:35:23.795Z,20.50
2022-10-16T15:37:52.090Z,20.50
2022-10-16T15:40:21.176Z,20.70
2022-10-16T15:42:49.353Z,20.60
2022-10-16T15:45:20.223Z,20.30
2022-10-16T15:47:48.476Z,20.00
2022-10-16T15:50:17.533Z,20.00
2022-10-16T15:52:45.612Z,19.90
2022-10-16T15:55:15.150Z,20.20
2022-10-16T15:57:44.148Z,20.40
2022-10-16T16:00:13.679Z,20.30
2022-10-16T16:02:43.103Z,20.00
2022-10-16T16:05:11.974Z,19.80
2022-10-16T16:07:40.631Z,19.70
2022-10-16T16:10:09.726Z,19.90
2022-10-16T16:12:38.198Z,20.00
2022-10-16T16:15:06.934Z,20.30
2022-10-16T16:17:35.466Z,20.20
2022-10-16T16:20:06.194Z,20.20
2022-10-16T16:22:34.131Z,20.30
2022-10-16T16:25:02.223Z,20.00
2022-10-16T16:27:34.424Z,19.80
2022-10-16T16:30:04.380Z,19.70
2022-10-16T16:32:32.932Z,19.60
2022-10-16T16:35:01.058Z,19.70
2022-10-16T16:37:30.912Z,19.90
2022-10-16T16:40:00.322Z,20.00
2022-10-16T16:42:28.736Z,20.00
2022-10-16T16:44:56.840Z,20.00
2022-10-16T16:47:25.339Z,20.00
2022-10-16T16:49:53.523Z,19.80
2022-10-16T16:52:21.563Z,19.60
2022-10-16T16:54:52.985Z,19.40
2022-10-16T16:57:21.428Z,19.20
2022-10-16T16:59:52.098Z,19.10
2022-10-16T17:02:20.643Z,19.20
2022-10-16T17:04:48.997Z,19.50
2022-10-16T17:07:18.561Z,19.70
2022-10-16T17:09:49.092Z,19.60
2022-10-16T17:12:18.612Z,19.50
2022-10-16T17:14:46.747Z,19.20
2022-10-16T17:17:15.182Z,19.00
2022-10-16T17:19:43.260Z,18.70
2022-10-16T17:22:11.200Z,18.60
2022-10-16T17:24:39.546Z,18.60
2022-10-16T17:27:07.627Z,18.60
2022-10-16T17:29:37.065Z,18.40
2022-10-16T17:32:05.957Z,18.20
2022-10-16T17:34:35.603Z,18.30
2022-10-16T17:37:03.672Z,18.20
2022-10-16T17:39:31.849Z,18.20
2022-10-16T17:41:59.991Z,18.50
2022-10-16T17:44:27.988Z,18.60
2022-10-16T17:47:01.080Z,18.30
2022-10-16T17:49:29.552Z,18.40
2022-10-16T17:51:58.984Z,18.40
2022-10-16T17:54:27.097Z,18.30
2022-10-16T17:56:55.062Z,18.40
2022-10-16T17:59:23.678Z,18.60
2022-10-16T18:01:51.732Z,18.60
2022-10-16T18:04:21.253Z,18.60
2022-10-16T18:06:49.426Z,18.30
2022-10-16T18:09:19.088Z,18.10
2022-10-16T18:11:47.709Z,18.10
2022-10-16T18:14:17.079Z,18.00
2022-10-16T18:16:45.323Z,18.00
2022-10-16T18:19:13.463Z,18.00
2022-10-16T18:21:43.076Z,18.10
2022-10-16T18:24:11.182Z,18.40
2022-10-16T18:26:39.503Z,18.70
2022-10-16T18:29:08.453Z,18.70
2022-10-16T18:31:39.091Z,18.60
2022-10-16T18:34:12.017Z,18.50
2022-10-16T18:36:42.397Z,18.30
2022-10-16T18:39:12.526Z,18.00
2022-10-16T18:41:42.089Z,17.80
2022-10-16T18:44:10.946Z,17.70
2022-10-16T18:46:38.987Z,17.70
2022-10-16T18:49:07.504Z,17.80
2022-10-16T18:51:36.552Z,17.90
2022-10-16T18:54:07.602Z,18.00
2022-10-16T18:56:39.389Z,18.00
2022-10-16T18:59:09.736Z,18.30
2022-10-16T19:01:41.352Z,18.40
2022-10-16T19:04:11.341Z,18.50
2022-10-16T19:06:41.244Z,18.40
2022-10-16T19:09:09.799Z,18.30
2022-10-16T19:11:41.546Z,18.10
2022-10-16T19:14:10.482Z,17.80
2022-10-16T19:16:39.119Z,17.50
2022-10-16T19:19:08.344Z,17.50
2022-10-16T19:21:39.936Z,17.60
2022-10-16T19:24:09.038Z,17.60
2022-10-16T19:26:39.625Z,17.60
2022-10-16T19:29:11.925Z,17.60
2022-10-16T19:31:40.521Z,17.80
2022-10-16T19:34:09.866Z,17.80
2022-10-16T19:36:38.558Z,18.00
2022-10-16T19:39:07.919Z,18.10
2022-10-16T19:41:37.258Z,18.10
2022-10-16T19:44:06.191Z,17.80
2022-10-16T19:46:36.165Z,17.70
2022-10-16T19:49:05.450Z,17.70
2022-10-16T19:51:34.082Z,17.90
2022-10-16T19:54:03.800Z,18.00
2022-10-16T19:56:32.454Z,17.90
2022-10-16T19:59:00.949Z,17.90
2022-10-16T20:01:30.333Z,17.70
2022-10-16T20:04:00.153Z,17.70
2022-10-16T20:06:28.095Z,17.80
2022-10-16T20:08:58.126Z,17.90
2022-10-16T20:11:27.258Z,18.00
2022-10-16T20:13:55.477Z,18.00
2022-10-16T20:16:23.974Z,18.20
2022-10-16T20:18:52.612Z,18.10
2022-10-16T20:21:23.305Z,18.00
2022-10-16T20:23:51.613Z,18.00
2022-10-16T20:26:21.188Z,18.00
2022-10-16T20:28:49.226Z,18.00
2022-10-16T20:31:22.317Z,18.00
2022-10-16T20:33:50.847Z,17.80
2022-10-16T20:36:19.773Z,17.80
2022-10-16T20:38:49.413Z,17.90
2022-10-16T20:41:17.830Z,17.90
2022-10-16T20:43:47.094Z,18.00
2022-10-16T20:46:16.412Z,18.00
2022-10-16T20:48:46.619Z,17.90
2022-10-16T20:51:16.093Z,17.80
2022-10-16T20:53:44.522Z,17.80
2022-10-16T20:56:15.785Z,17.60
2022-10-16T20:58:44.447Z,17.50
2022-10-16T21:01:13.887Z,17.50
2022-10-16T21:03:42.335Z,17.60
2022-10-16T21:06:11.313Z,17.70
2022-10-16T21:08:40.030Z,17.70
2022-10-16T21:11:11.901Z,17.70
2022-10-16T21:13:41.897Z,17.70
2022-10-16T21:16:10.075Z,17.80
2022-10-16T21:18:43.357Z,17.70
2022-10-16T21:21:19.816Z,17.70
2022-10-16T21:23:47.885Z,17.60
2022-10-16T21:26:16.459Z,17.60
2022-10-16T21:28:46.103Z,17.50
2022-10-16T21:31:15.288Z,17.40
2022-10-16T21:33:43.538Z,17.50
2022-10-16T21:36:15.803Z,17.50
2022-10-16T21:38:44.214Z,17.60
2022-10-16T21:41:13.379Z,17.50
2022-10-16T21:43:41.438Z,17.50
2022-10-16T21:46:10.910Z,17.40
2022-10-16T21:48:40.013Z,17.30
2022-10-16T21:51:08.076Z,17.50
2022-10-16T21:53:36.003Z,17.60
2022-10-16T21:56:04.816Z,17.60
2022-10-16T21:58:33.556Z,17.60
2022-10-16T22:01:07.273Z,17.60
2022-10-16T22:03:36.997Z,17.40
2022-10-16T22:06:06.717Z,17.40
2022-10-16T22:08:35.405Z,17.40
2022-10-16T22:11:04.276Z,17.30
2022-10-16T22:13:32.460Z,17.30
2022-10-16T22:16:00.537Z,17.40
2022-10-16T22:18:28.933Z,17.40
2022-10-16T22:20:58.284Z,17.40
2022-10-16T22:23:26.570Z,17.50
2022-10-16T22:25:59.922Z,17.40
2022-10-16T22:28:27.910Z,17.30
2022-10-16T22:30:56.415Z,17.20
2022-10-16T22:33:24.490Z,17.10
2022-10-16T22:35:52.492Z,17.00
2022-10-16T22:38:26.723Z,16.90
2022-10-16T22:40:54.741Z,17.10
2022-10-16T22:43:22.908Z,17.10
2022-10-16T22:45:50.890Z,17.30
2022-10-16T22:48:19.017Z,17.20
2022-10-16T22:50:48.944Z,17.40
2022-10-16T22:53:16.888Z,17.40
2022-10-16T22:55:46.686Z,17.40
2022-10-16T22:58:14.875Z,17.40
2022-10-16T23:00:43.315Z,17.40
2022-10-16T23:03:11.619Z,17.50
2022-10-16T23:05:40.136Z,17.60
2022-10-16T23:08:08.325Z,17.60
2022-10-16T23:10:36.430Z,17.70
2022-10-16T23:13:06.093Z,17.70
2022-10-16T23:15:34.160Z,17.70
2022-10-16T23:18:02.239Z,17.70
2022-10-16T23:20:30.562Z,17.70
2022-10-16T23:22:59.373Z,17.90
2022-10-16T23:25:27.492Z,17.90
2022-10-16T23:27:55.704Z,17.70
2022-10-16T23:30:25.110Z,17.70
2022-10-16T23:32:53.051Z,17.60
2022-10-16T23:35:21.332Z,17.60
2022-10-16T23:37:49.444Z,17.60
2022-10-16T23:40:17.603Z,17.50
2022-10-16T23:42:45.836Z,17.60
2022-10-16T23:45:13.902Z,17.60
2022-10-16T23:47:43.275Z,17.70
2022-10-16T23:50:11.438Z,17.80
2022-10-16T23:52:39.461Z,17.70
2022-10-16T23:55:07.865Z,17.50
2022-10-16T23:57:36.156Z,17.50
